sensor_id;sensor_type;location;lat;lon;timestamp;pressure;altitude;pressure_sealevel;temperature;humidity
34925;BME280;21130;51.728;8.748;2023-04-01T00:00:56;98302.88;;;8.94;100.00
34925;BME280;21130;51.728;8.748;2023-04-01T00:03:24;98307.06;;;8.91;100.00
34925;BME280;21130;51.728;8.748;2023-04-01T00:05:51;98308.09;;;8.95;100.00
34925;BME280;21130;51.728;8.748;2023-04-01T00:08:18;98315.31;;;8.96;100.00
34925;BME280;21130;51.728;8.748;2023-04-01T00:10:46;98307.59;;;8.93;100.00
34925;BME280;21130;51.728;8.748;2023-04-01T00:13:13;98306.75;;;8.93;100.00
34925;BME280;21130;51.728;8.748;2023-04-01T00:15:42;98301.22;;;8.93;100.00
34925;BME280;21130;51.728;8.748;2023-04-01T00:18:09;98308.41;;;8.94;100.00
34925;BME280;21130;51.728;8.748;2023-04-01T00:20:35;98301.22;;;8.93;100.00
34925;BME280;21130;51.728;8.748;2023-04-01T00:23:02;98308.41;;;8.94;100.00
34925;BME280;21130;51.728;8.748;2023-04-01T00:25:30;98314.53;;;8.91;100.00
34925;BME280;21130;51.728;8.748;2023-04-01T00:27:56;98301.78;;;8.90;100.00
34925;BME280;21130;51.728;8.748;2023-04-01T00:30:23;98300.69;;;8.91;100.00
34925;BME280;21130;51.728;8.748;2023-04-01T00:32:52;98304.03;;;8.87;100.00
34925;BME280;21130;51.728;8.748;2023-04-01T00:35:19;98300.41;;;8.92;100.00
34925;BME280;21130;51.728;8.748;2023-04-01T00:37:45;98297.63;;;8.92;100.00
34925;BME280;21130;51.728;8.748;2023-04-01T00:40:24;98293.22;;;8.91;100.00
34925;BME280;21130;51.728;8.748;2023-04-01T00:42:51;98292.69;;;8.89;100.00
34925;BME280;21130;51.728;8.748;2023-04-01T00:45:39;98287.09;;;8.94;100.00
34925;BME280;21130;51.728;8.748;2023-04-01T00:48:11;98285.47;;;8.93;100.00
34925;BME280;21130;51.728;8.748;2023-04-01T00:50:40;98283.53;;;8.94;100.00
34925;BME280;21130;51.728;8.748;2023-04-01T00:53:08;98286.28;;;8.94;100.00
34925;BME280;21130;51.728;8.748;2023-04-01T00:55:39;98287.69;;;8.91;100.00
34925;BME280;21130;51.728;8.748;2023-04-01T00:58:11;98288.22;;;8.93;100.00
34925;BME280;21130;51.728;8.748;2023-04-01T01:00:40;98281.28;;;8.96;100.00
34925;BME280;21130;51.728;8.748;2023-04-01T01:03:08;98284.06;;;8.96;100.00
34925;BME280;21130;51.728;8.748;2023-04-01T01:05:43;98293.72;;;8.98;100.00
34925;BME280;21130;51.728;8.748;2023-04-01T01:08:17;98278.50;;;9.01;100.00
34925;BME280;21130;51.728;8.748;2023-04-01T01:11:10;98274.91;;;9.00;100.00
34925;BME280;21130;51.728;8.748;2023-04-01T01:13:58;98278.44;;;9.06;100.00
34925;BME280;21130;51.728;8.748;2023-04-01T01:16:30;98263.78;;;9.05;100.00
34925;BME280;21130;51.728;8.748;2023-04-01T01:19:07;98275.94;;;9.04;100.00
34925;BME280;21130;51.728;8.748;2023-04-01T01:21:54;98259.13;;;9.01;100.00
34925;BME280;21130;51.728;8.748;2023-04-01T01:24:54;98267.97;;;9.03;100.00
34925;BME280;21130;51.728;8.748;2023-04-01T01:27:26;98271.25;;;9.05;100.00
34925;BME280;21130;51.728;8.748;2023-04-01T01:30:02;98271.81;;;9.02;100.00
34925;BME280;21130;51.728;8.748;2023-04-01T01:32:47;98269.88;;;9.02;100.00
34925;BME280;21130;51.728;8.748;2023-04-01T01:35:26;98276.28;;;8.98;100.00
34925;BME280;21130;51.728;8.748;2023-04-01T01:37:56;98269.97;;;8.92;100.00
34925;BME280;21130;51.728;8.748;2023-04-01T01:40:26;98267.81;;;8.84;100.00
34925;BME280;21130;51.728;8.748;2023-04-01T01:42:55;98271.72;;;8.83;100.00
34925;BME280;21130;51.728;8.748;2023-04-01T01:45:26;98272.56;;;8.78;100.00
34925;BME280;21130;51.728;8.748;2023-04-01T01:47:54;98273.75;;;8.67;100.00
34925;BME280;21130;51.728;8.748;2023-04-01T01:50:25;98267.66;;;8.65;100.00
34925;BME280;21130;51.728;8.748;2023-04-01T01:53:00;98273.19;;;8.65;100.00
34925;BME280;21130;51.728;8.748;2023-04-01T01:55:29;98271.31;;;8.60;100.00
34925;BME280;21130;51.728;8.748;2023-04-01T01:57:58;98270.50;;;8.55;100.00
34925;BME280;21130;51.728;8.748;2023-04-01T02:00:25;98266.13;;;8.49;100.00
34925;BME280;21130;51.728;8.748;2023-04-01T02:02:53;98263.38;;;8.49;100.00
34925;BME280;21130;51.728;8.748;2023-04-01T02:05:21;98259.25;;;8.46;100.00
34925;BME280;21130;51.728;8.748;2023-04-01T02:07:55;98265.34;;;8.43;100.00
34925;BME280;21130;51.728;8.748;2023-04-01T02:10:25;98257.06;;;8.43;100.00
34925;BME280;21130;51.728;8.748;2023-04-01T02:12:57;98259.25;;;8.46;100.00
34925;BME280;21130;51.728;8.748;2023-04-01T02:15:27;98261.69;;;8.53;100.00
34925;BME280;21130;51.728;8.748;2023-04-01T02:17:58;98262.78;;;8.52;100.00
34925;BME280;21130;51.728;8.748;2023-04-01T02:20:27;98261.94;;;8.56;100.00
34925;BME280;21130;51.728;8.748;2023-04-01T02:22:57;98258.06;;;8.57;100.00
34925;BME280;21130;51.728;8.748;2023-04-01T02:25:27;98259.38;;;8.65;100.00
34925;BME280;21130;51.728;8.748;2023-04-01T02:27:56;98254.41;;;8.67;100.00
34925;BME280;21130;51.728;8.748;2023-04-01T02:30:24;98259.34;;;8.70;100.00
34925;BME280;21130;51.728;8.748;2023-04-01T02:32:53;98261.88;;;8.67;100.00
34925;BME280;21130;51.728;8.748;2023-04-01T02:35:20;98256.09;;;8.63;100.00
34925;BME280;21130;51.728;8.748;2023-04-01T02:37:49;98263.81;;;8.66;100.00
34925;BME280;21130;51.728;8.748;2023-04-01T02:40:17;98256.06;;;8.68;100.00
34925;BME280;21130;51.728;8.748;2023-04-01T02:42:44;98251.63;;;8.67;100.00
34925;BME280;21130;51.728;8.748;2023-04-01T02:45:12;98258.78;;;8.73;100.00
34925;BME280;21130;51.728;8.748;2023-04-01T02:47:39;98254.06;;;8.74;100.00
34925;BME280;21130;51.728;8.748;2023-04-01T02:50:07;98253.25;;;8.73;100.00
34925;BME280;21130;51.728;8.748;2023-04-01T02:52:33;98255.97;;;8.78;100.00
34925;BME280;21130;51.728;8.748;2023-04-01T02:55:00;98262.34;;;8.79;100.00
34925;BME280;21130;51.728;8.748;2023-04-01T02:57:27;98258.72;;;8.83;100.00
34925;BME280;21130;51.728;8.748;2023-04-01T02:59:54;98261.22;;;8.80;100.00
34925;BME280;21130;51.728;8.748;2023-04-01T03:02:20;98251.28;;;8.79;100.00
34925;BME280;21130;51.728;8.748;2023-04-01T03:04:47;98264.28;;;8.78;100.00
34925;BME280;21130;51.728;8.748;2023-04-01T03:07:13;98262.09;;;8.75;100.00
34925;BME280;21130;51.728;8.748;2023-04-01T03:09:40;98262.66;;;8.72;100.00
34925;BME280;21130;51.728;8.748;2023-04-01T03:12:06;98262.09;;;8.75;100.00
34925;BME280;21130;51.728;8.748;2023-04-01T03:14:34;98267.63;;;8.75;100.00
34925;BME280;21130;51.728;8.748;2023-04-01T03:17:01;98265.38;;;8.77;100.00
34925;BME280;21130;51.728;8.748;2023-04-01T03:19:27;98263.16;;;8.79;100.00
34925;BME280;21130;51.728;8.748;2023-04-01T03:21:53;98262.06;;;8.80;100.00
34925;BME280;21130;51.728;8.748;2023-04-01T03:24:20;98265.38;;;8.77;100.00
34925;BME280;21130;51.728;8.748;2023-04-01T03:26:46;98267.38;;;8.72;100.00
34925;BME280;21130;51.728;8.748;2023-04-01T03:29:13;98265.72;;;8.71;100.00
34925;BME280;21130;51.728;8.748;2023-04-01T03:31:42;98258.78;;;8.73;100.00
34925;BME280;21130;51.728;8.748;2023-04-01T03:34:09;98275.94;;;8.70;100.00
34925;BME280;21130;51.728;8.748;2023-04-01T03:36:35;98271.28;;;8.65;100.00
34925;BME280;21130;51.728;8.748;2023-04-01T03:39:02;98266.63;;;8.61;100.00
34925;BME280;21130;51.728;8.748;2023-04-01T03:41:29;98277.69;;;8.61;100.00
34925;BME280;21130;51.728;8.748;2023-04-01T03:43:56;98276.00;;;8.60;100.00
34925;BME280;21130;51.728;8.748;2023-04-01T03:46:23;98275.19;;;8.59;100.00
34925;BME280;21130;51.728;8.748;2023-04-01T03:48:50;98283.22;;;8.61;100.00
34925;BME280;21130;51.728;8.748;2023-04-01T03:51:17;98278.78;;;8.60;100.00
34925;BME280;21130;51.728;8.748;2023-04-01T03:53:43;98284.09;;;8.51;100.00
34925;BME280;21130;51.728;8.748;2023-04-01T03:56:09;98283.28;;;8.51;100.00
34925;BME280;21130;51.728;8.748;2023-04-01T03:58:36;98286.06;;;8.46;100.00
34925;BME280;21130;51.728;8.748;2023-04-01T04:01:13;98288.28;;;8.43;100.00
34925;BME280;21130;51.728;8.748;2023-04-01T04:03:39;98288.88;;;8.35;100.00
34925;BME280;21130;51.728;8.748;2023-04-01T04:06:10;98288.56;;;8.37;100.00
34925;BME280;21130;51.728;8.748;2023-04-01T04:08:37;98283.38;;;8.30;100.00
34925;BME280;21130;51.728;8.748;2023-04-01T04:11:03;98289.41;;;8.32;100.00
34925;BME280;21130;51.728;8.748;2023-04-01T04:13:31;98293.88;;;8.28;100.00
34925;BME280;21130;51.728;8.748;2023-04-01T04:15:58;98288.38;;;8.23;100.00
34925;BME280;21130;51.728;8.748;2023-04-01T04:18:24;98294.44;;;8.25;100.00
34925;BME280;21130;51.728;8.748;2023-04-01T04:20:51;98293.31;;;8.26;100.00
34925;BME280;21130;51.728;8.748;2023-04-01T04:23:18;98290.56;;;8.26;100.00
34925;BME280;21130;51.728;8.748;2023-04-01T04:25:53;98288.38;;;8.23;100.00
34925;BME280;21130;51.728;8.748;2023-04-01T04:28:20;98294.44;;;8.20;100.00
34925;BME280;21130;51.728;8.748;2023-04-01T04:30:46;98296.69;;;8.18;100.00
34925;BME280;21130;51.728;8.748;2023-04-01T04:33:12;98295.28;;;8.20;100.00
34925;BME280;21130;51.728;8.748;2023-04-01T04:35:39;98294.19;;;8.16;100.00
34925;BME280;21130;51.728;8.748;2023-04-01T04:38:05;98302.47;;;8.16;100.00
34925;BME280;21130;51.728;8.748;2023-04-01T04:40:35;98305.03;;;8.08;100.00
34925;BME280;21130;51.728;8.748;2023-04-01T04:43:02;98301.41;;;8.07;100.00
34925;BME280;21130;51.728;8.748;2023-04-01T04:45:28;98291.75;;;8.05;100.00
34925;BME280;21130;51.728;8.748;2023-04-01T04:47:55;98291.75;;;8.05;100.00
34925;BME280;21130;51.728;8.748;2023-04-01T04:50:22;98287.06;;;8.05;100.00
34925;BME280;21130;51.728;8.748;2023-04-01T04:52:48;98294.25;;;8.06;100.00
34925;BME280;21130;51.728;8.748;2023-04-01T04:55:15;98292.88;;;8.04;100.00
34925;BME280;21130;51.728;8.748;2023-04-01T04:57:43;98294.25;;;8.06;100.00
34925;BME280;21130;51.728;8.748;2023-04-01T05:00:10;98297.59;;;7.98;100.00
34925;BME280;21130;51.728;8.748;2023-04-01T05:02:37;98289.56;;;8.01;100.00
34925;BME280;21130;51.728;8.748;2023-04-01T05:05:04;98282.41;;;8.00;100.00
34925;BME280;21130;51.728;8.748;2023-04-01T05:07:32;98295.66;;;7.98;100.00
34925;BME280;21130;51.728;8.748;2023-04-01T05:09:59;98289.59;;;7.96;100.00
34925;BME280;21130;51.728;8.748;2023-04-01T05:12:25;98284.63;;;7.93;100.00
34925;BME280;21130;51.728;8.748;2023-04-01T05:14:53;98290.72;;;7.90;100.00
34925;BME280;21130;51.728;8.748;2023-04-01T05:17:20;98289.34;;;7.93;100.00
34925;BME280;21130;51.728;8.748;2023-04-01T05:19:46;98301.50;;;7.87;100.00
34925;BME280;21130;51.728;8.748;2023-04-01T05:22:13;98287.41;;;7.88;100.00
34925;BME280;21130;51.728;8.748;2023-04-01T05:24:39;98285.19;;;7.90;100.00
34925;BME280;21130;51.728;8.748;2023-04-01T05:27:06;98296.78;;;7.87;100.00
34925;BME280;21130;51.728;8.748;2023-04-01T05:29:32;98289.06;;;7.89;100.00
34925;BME280;21130;51.728;8.748;2023-04-01T05:32:01;98294.03;;;7.87;100.00
34925;BME280;21130;51.728;8.748;2023-04-01T05:34:28;98295.69;;;7.93;100.00
34925;BME280;21130;51.728;8.748;2023-04-01T05:36:54;98289.03;;;7.94;100.00
34925;BME280;21130;51.728;8.748;2023-04-01T05:39:20;98290.38;;;8.02;100.00
34925;BME280;21130;51.728;8.748;2023-04-01T05:41:47;98295.91;;;8.02;100.00
34925;BME280;21130;51.728;8.748;2023-04-01T05:44:13;98298.09;;;8.10;100.00
34925;BME280;21130;51.728;8.748;2023-04-01T05:46:40;98291.22;;;8.08;100.00
34925;BME280;21130;51.728;8.748;2023-04-01T05:49:08;98292.28;;;8.12;100.00
34925;BME280;21130;51.728;8.748;2023-04-01T05:51:34;98294.75;;;8.18;100.00
34925;BME280;21130;51.728;8.748;2023-04-01T05:54:00;98301.63;;;8.26;100.00
34925;BME280;21130;51.728;8.748;2023-04-01T05:56:27;98306.00;;;8.27;100.00
34925;BME280;21130;51.728;8.748;2023-04-01T05:58:54;98305.19;;;8.27;100.00
34925;BME280;21130;51.728;8.748;2023-04-01T06:01:20;98309.88;;;8.31;100.00
34925;BME280;21130;51.728;8.748;2023-04-01T06:03:47;98316.53;;;8.30;100.00
34925;BME280;21130;51.728;8.748;2023-04-01T06:06:16;98311.81;;;8.31;100.00
34925;BME280;21130;51.728;8.748;2023-04-01T06:08:46;98314.84;;;8.29;100.00
34925;BME280;21130;51.728;8.748;2023-04-01T06:11:22;98319.28;;;8.30;100.00
34925;BME280;21130;51.728;8.748;2023-04-01T06:14:00;98325.91;;;8.29;100.00
34925;BME280;21130;51.728;8.748;2023-04-01T06:16:43;98322.91;;;8.20;100.00
34925;BME280;21130;51.728;8.748;2023-04-01T06:19:22;98325.97;;;8.19;100.00
34925;BME280;21130;51.728;8.748;2023-04-01T06:22:15;98336.47;;;8.17;100.00
34925;BME280;21130;51.728;8.748;2023-04-01T06:24:59;98333.16;;;8.15;100.00
34925;BME280;21130;51.728;8.748;2023-04-01T06:27:43;98334.00;;;8.15;100.00
34925;BME280;21130;51.728;8.748;2023-04-01T06:30:28;98338.13;;;8.18;100.00
34925;BME280;21130;51.728;8.748;2023-04-01T06:33:18;98336.75;;;8.15;100.00
34925;BME280;21130;51.728;8.748;2023-04-01T06:36:06;98338.66;;;8.15;100.00
34925;BME280;21130;51.728;8.748;2023-04-01T06:38:53;98343.94;;;8.16;100.00
34925;BME280;21130;51.728;8.748;2023-04-01T06:41:49;98351.13;;;8.12;100.00
34925;BME280;21130;51.728;8.748;2023-04-01T06:44:23;98347.50;;;8.17;100.00
34925;BME280;21130;51.728;8.748;2023-04-01T06:46:58;98355.22;;;8.20;100.00
34925;BME280;21130;51.728;8.748;2023-04-01T06:49:37;98352.50;;;8.15;100.00
34925;BME280;21130;51.728;8.748;2023-04-01T06:52:13;98352.78;;;8.18;100.00
34925;BME280;21130;51.728;8.748;2023-04-01T06:54:47;98354.69;;;8.23;100.00
34925;BME280;21130;51.728;8.748;2023-04-01T06:57:21;98354.69;;;8.23;100.00
34925;BME280;21130;51.728;8.748;2023-04-01T06:59:51;98352.69;;;8.34;100.00
34925;BME280;21130;51.728;8.748;2023-04-01T07:02:25;98355.19;;;8.40;100.00
34925;BME280;21130;51.728;8.748;2023-04-01T07:04:56;98354.34;;;8.40;100.00
34925;BME280;21130;51.728;8.748;2023-04-01T07:07:30;98351.31;;;8.41;100.00
34925;BME280;21130;51.728;8.748;2023-04-01T07:10:05;98355.16;;;8.51;100.00
34925;BME280;21130;51.728;8.748;2023-04-01T07:12:41;98354.00;;;8.57;100.00
34925;BME280;21130;51.728;8.748;2023-04-01T07:15:16;98364.78;;;8.58;100.00
34925;BME280;21130;51.728;8.748;2023-04-01T07:17:45;98360.63;;;8.61;100.00
34925;BME280;21130;51.728;8.748;2023-04-01T07:20:17;98362.53;;;8.65;100.00
34925;BME280;21130;51.728;8.748;2023-04-01T07:22:48;98361.13;;;8.68;100.00
34925;BME280;21130;51.728;8.748;2023-04-01T07:25:20;98361.94;;;8.74;100.00
34925;BME280;21130;51.728;8.748;2023-04-01T07:27:47;98369.41;;;8.73;100.00
34925;BME280;21130;51.728;8.748;2023-04-01T07:30:15;98371.59;;;8.76;100.00
34925;BME280;21130;51.728;8.748;2023-04-01T07:32:46;98371.53;;;8.86;100.00
34925;BME280;21130;51.728;8.748;2023-04-01T07:35:22;98364.38;;;8.85;100.00
34925;BME280;21130;51.728;8.748;2023-04-01T07:38:02;98363.78;;;8.89;100.00
34925;BME280;21130;51.728;8.748;2023-04-01T07:40:39;98364.81;;;8.98;100.00
34925;BME280;21130;51.728;8.748;2023-04-01T07:43:33;98372.25;;;9.02;100.00
34925;BME280;21130;51.728;8.748;2023-04-01T07:46:10;98381.44;;;8.93;100.00
34925;BME280;21130;51.728;8.748;2023-04-01T07:48:47;98383.81;;;9.09;100.00
34925;BME280;21130;51.728;8.748;2023-04-01T07:51:37;98389.06;;;9.16;100.00
34925;BME280;21130;51.728;8.748;2023-04-01T07:54:11;98384.09;;;9.13;100.00
34925;BME280;21130;51.728;8.748;2023-04-01T07:56:48;98382.66;;;9.21;100.00
34925;BME280;21130;51.728;8.748;2023-04-01T07:59:21;98395.59;;;9.30;100.00
34925;BME280;21130;51.728;8.748;2023-04-01T08:01:57;98391.69;;;9.32;100.00
34925;BME280;21130;51.728;8.748;2023-04-01T08:04:36;98395.00;;;9.34;100.00
34925;BME280;21130;51.728;8.748;2023-04-01T08:07:10;98396.38;;;9.36;100.00
34925;BME280;21130;51.728;8.748;2023-04-01T08:09:43;98394.50;;;9.26;100.00
34925;BME280;21130;51.728;8.748;2023-04-01T08:12:25;98401.13;;;9.30;100.00
34925;BME280;21130;51.728;8.748;2023-04-01T08:15:01;98406.59;;;9.41;100.00
34925;BME280;21130;51.728;8.748;2023-04-01T08:17:35;98415.06;;;9.55;100.00
34925;BME280;21130;51.728;8.748;2023-04-01T08:20:21;98406.09;;;9.63;100.00
34925;BME280;21130;51.728;8.748;2023-04-01T08:22:51;98417.63;;;9.75;100.00
34925;BME280;21130;51.728;8.748;2023-04-01T08:25:24;98413.50;;;9.72;100.00
34925;BME280;21130;51.728;8.748;2023-04-01T08:27:55;98419.53;;;9.80;100.00
34925;BME280;21130;51.728;8.748;2023-04-01T08:30:25;98415.63;;;9.86;100.00
34925;BME280;21130;51.728;8.748;2023-04-01T08:32:55;98423.09;;;9.85;100.00
34925;BME280;21130;51.728;8.748;2023-04-01T08:35:27;98417.84;;;9.84;100.00
34925;BME280;21130;51.728;8.748;2023-04-01T08:44:28;98430.56;;;9.85;100.00
34925;BME280;21130;51.728;8.748;2023-04-01T08:47:24;98433.69;;;9.78;100.00
34925;BME280;21130;51.728;8.748;2023-04-01T08:53:11;98439.53;;;9.77;100.00
34925;BME280;21130;51.728;8.748;2023-04-01T08:55:51;98432.25;;;9.86;100.00
34925;BME280;21130;51.728;8.748;2023-04-01T09:01:26;98435.88;;;10.10;100.00
34925;BME280;21130;51.728;8.748;2023-04-01T09:04:05;98444.06;;;10.21;100.00
34925;BME280;21130;51.728;8.748;2023-04-01T09:06:49;98437.94;;;10.29;100.00
34925;BME280;21130;51.728;8.748;2023-04-01T09:09:50;98435.34;;;10.37;100.00
34925;BME280;21130;51.728;8.748;2023-04-01T09:12:31;98437.44;;;10.51;100.00
34925;BME280;21130;51.728;8.748;2023-04-01T09:15:34;98439.81;;;10.57;100.00
34925;BME280;21130;51.728;8.748;2023-04-01T09:18:13;98441.09;;;10.46;100.00
34925;BME280;21130;51.728;8.748;2023-04-01T09:20:52;98444.53;;;10.33;100.00
34925;BME280;21130;51.728;8.748;2023-04-01T09:23:38;98455.41;;;10.29;100.00
34925;BME280;21130;51.728;8.748;2023-04-01T09:26:36;98454.59;;;10.29;100.00
34925;BME280;21130;51.728;8.748;2023-04-01T09:29:18;98464.00;;;10.28;100.00
34925;BME280;21130;51.728;8.748;2023-04-01T09:32:08;98461.75;;;10.30;100.00
34925;BME280;21130;51.728;8.748;2023-04-01T09:35:06;98465.84;;;10.37;100.00
34925;BME280;21130;51.728;8.748;2023-04-01T09:37:53;98464.47;;;10.35;100.00
34925;BME280;21130;51.728;8.748;2023-04-01T09:40:30;98462.72;;;10.15;100.00
34925;BME280;21130;51.728;8.748;2023-04-01T09:43:21;98473.94;;;10.00;100.00
34925;BME280;21130;51.728;8.748;2023-04-01T09:45:58;98476.53;;;9.91;100.00
34925;BME280;21130;51.728;8.748;2023-04-01T09:48:43;98483.22;;;9.85;100.00
34925;BME280;21130;51.728;8.748;2023-04-01T09:51:23;98479.53;;;9.94;100.00
34925;BME280;21130;51.728;8.748;2023-04-01T09:54:04;98482.22;;;10.05;100.00
34925;BME280;21130;51.728;8.748;2023-04-01T09:57:18;98482.56;;;10.27;100.00
34925;BME280;21130;51.728;8.748;2023-04-01T10:00:10;98483.16;;;10.53;100.00
34925;BME280;21130;51.728;8.748;2023-04-01T10:02:57;98482.03;;;10.54;100.00
34925;BME280;21130;51.728;8.748;2023-04-01T10:05:58;98487.63;;;10.49;100.00
34925;BME280;21130;51.728;8.748;2023-04-01T10:08:48;98488.66;;;10.58;100.00
34925;BME280;21130;51.728;8.748;2023-04-01T10:11:38;98494.75;;;10.55;100.00
34925;BME280;21130;51.728;8.748;2023-04-01T10:14:26;98493.56;;;10.37;100.00
34925;BME280;21130;51.728;8.748;2023-04-01T10:17:38;98503.84;;;10.37;100.00
34925;BME280;21130;51.728;8.748;2023-04-01T10:20:54;98501.06;;;10.37;100.00
34925;BME280;21130;51.728;8.748;2023-04-01T10:23:42;98501.56;;;10.44;100.00
34925;BME280;21130;51.728;8.748;2023-04-01T10:26:32;98504.28;;;10.49;100.00
34925;BME280;21130;51.728;8.748;2023-04-01T10:29:29;98513.13;;;10.51;100.00
34925;BME280;21130;51.728;8.748;2023-04-01T10:32:37;98511.56;;;10.40;100.00
34925;BME280;21130;51.728;8.748;2023-04-01T10:35:36;98513.75;;;10.43;100.00
34925;BME280;21130;51.728;8.748;2023-04-01T10:38:39;98513.72;;;10.48;100.00
34925;BME280;21130;51.728;8.748;2023-04-01T10:50:59;98513.13;;;10.99;100.00
34925;BME280;21130;51.728;8.748;2023-04-01T10:53:47;98519.22;;;10.77;100.00
34925;BME280;21130;51.728;8.748;2023-04-01T10:56:40;98515.72;;;10.91;100.00
34925;BME280;21130;51.728;8.748;2023-04-01T10:59:35;98520.09;;;10.49;100.00
34925;BME280;21130;51.728;8.748;2023-04-01T11:08:53;98532.78;;;10.26;100.00
34925;BME280;21130;51.728;8.748;2023-04-01T11:11:49;98532.22;;;10.29;100.00
34925;BME280;21130;51.728;8.748;2023-04-01T11:14:48;98537.19;;;10.27;100.00
34925;BME280;21130;51.728;8.748;2023-04-01T11:17:36;98538.56;;;10.29;100.00
34925;BME280;21130;51.728;8.748;2023-04-01T11:20:21;98545.78;;;10.25;100.00
34925;BME280;21130;51.728;8.748;2023-04-01T11:23:07;98547.72;;;10.25;100.00
34925;BME280;21130;51.728;8.748;2023-04-01T11:25:50;98547.22;;;10.17;100.00
34925;BME280;21130;51.728;8.748;2023-04-01T11:28:27;98544.81;;;10.11;100.00
34925;BME280;21130;51.728;8.748;2023-04-01T11:31:15;98557.19;;;10.24;100.00
34925;BME280;21130;51.728;8.748;2023-04-01T11:33:53;98563.81;;;10.28;100.00
34925;BME280;21130;51.728;8.748;2023-04-01T11:36:26;98553.75;;;10.37;100.00
34925;BME280;21130;51.728;8.748;2023-04-01T11:39:01;98554.78;;;10.46;100.00
34925;BME280;21130;51.728;8.748;2023-04-01T11:41:38;98560.38;;;10.41;100.00
34925;BME280;21130;51.728;8.748;2023-04-01T11:44:16;98560.13;;;10.67;100.00
34925;BME280;21130;51.728;8.748;2023-04-01T11:46:56;98562.47;;;10.54;100.00
34925;BME280;21130;51.728;8.748;2023-04-01T11:49:35;98560.72;;;10.64;100.00
34925;BME280;21130;51.728;8.748;2023-04-01T11:52:31;98562.13;;;10.61;100.00
34925;BME280;21130;51.728;8.748;2023-04-01T11:55:06;98568.88;;;10.79;100.00
34925;BME280;21130;51.728;8.748;2023-04-01T11:57:59;98569.94;;;10.83;100.00
34925;BME280;21130;51.728;8.748;2023-04-01T12:00:52;98570.47;;;10.85;100.00
34925;BME280;21130;51.728;8.748;2023-04-01T12:03:38;98575.38;;;10.93;100.00
34925;BME280;21130;51.728;8.748;2023-04-01T12:06:12;98578.50;;;10.87;100.00
34925;BME280;21130;51.728;8.748;2023-04-01T12:08:45;98584.22;;;10.95;100.00
34925;BME280;21130;51.728;8.748;2023-04-01T12:11:17;98583.19;;;10.91;100.00
34925;BME280;21130;51.728;8.748;2023-04-01T12:13:51;98588.47;;;10.88;100.00
34925;BME280;21130;51.728;8.748;2023-04-01T12:16:26;98594.44;;;10.76;100.00
34925;BME280;21130;51.728;8.748;2023-04-01T12:19:03;98597.13;;;10.57;100.00
34925;BME280;21130;51.728;8.748;2023-04-01T12:21:36;98608.50;;;10.55;100.00
34925;BME280;21130;51.728;8.748;2023-04-01T12:24:29;98607.06;;;10.29;100.00
34925;BME280;21130;51.728;8.748;2023-04-01T12:27:10;98615.41;;;10.24;100.00
34925;BME280;21130;51.728;8.748;2023-04-01T12:30:02;98616.91;;;10.06;100.00
34925;BME280;21130;51.728;8.748;2023-04-01T12:32:40;98616.03;;;10.10;100.00
34925;BME280;21130;51.728;8.748;2023-04-01T12:35:17;98628.31;;;9.99;100.00
34925;BME280;21130;51.728;8.748;2023-04-01T12:37:50;98621.09;;;9.98;100.00
34925;BME280;21130;51.728;8.748;2023-04-01T12:40:30;98622.19;;;10.02;100.00
34925;BME280;21130;51.728;8.748;2023-04-01T12:43:17;98635.19;;;10.07;100.00
34925;BME280;21130;51.728;8.748;2023-04-01T12:45:53;98632.94;;;10.14;100.00
34925;BME280;21130;51.728;8.748;2023-04-01T12:48:34;98631.50;;;10.22;100.00
34925;BME280;21130;51.728;8.748;2023-04-01T12:51:19;98630.28;;;10.38;100.00
34925;BME280;21130;51.728;8.748;2023-04-01T12:54:15;98633.22;;;10.52;100.00
34925;BME280;21130;51.728;8.748;2023-04-01T12:57:17;98635.84;;;10.33;100.00
34925;BME280;21130;51.728;8.748;2023-04-01T13:00:20;98640.25;;;10.39;100.00
34925;BME280;21130;51.728;8.748;2023-04-01T13:03:25;98643.19;;;10.53;100.00
34925;BME280;21130;51.728;8.748;2023-04-01T13:09:46;98645.59;;;10.94;100.00
34925;BME280;21130;51.728;8.748;2023-04-01T13:12:56;98642.88;;;11.13;100.00
34925;BME280;21130;51.728;8.748;2023-04-01T13:15:48;98650.34;;;10.88;100.00
34925;BME280;21130;51.728;8.748;2023-04-01T13:18:54;98652.63;;;11.10;100.00
34925;BME280;21130;51.728;8.748;2023-04-01T13:21:51;98656.88;;;11.02;100.00
34925;BME280;21130;51.728;8.748;2023-04-01T13:24:45;98651.31;;;11.02;100.00
34925;BME280;21130;51.728;8.748;2023-04-01T13:27:40;98662.69;;;11.06;100.00
34925;BME280;21130;51.728;8.748;2023-04-01T13:30:30;98653.19;;;11.12;100.00
34925;BME280;21130;51.728;8.748;2023-04-01T13:33:25;98653.94;;;11.18;100.00
34925;BME280;21130;51.728;8.748;2023-04-01T13:36:21;98658.94;;;11.16;100.00
34925;BME280;21130;51.728;8.748;2023-04-01T13:39:29;98661.28;;;11.33;100.00
34925;BME280;21130;51.728;8.748;2023-04-01T13:42:21;98667.06;;;11.12;100.00
34925;BME280;21130;51.728;8.748;2023-04-01T13:45:14;98668.72;;;11.37;100.00
34925;BME280;21130;51.728;8.748;2023-04-01T13:51:26;98669.66;;;11.28;100.00
34925;BME280;21130;51.728;8.748;2023-04-01T13:54:45;98674.97;;;11.48;100.00
34925;BME280;21130;51.728;8.748;2023-04-01T13:57:51;98673.56;;;11.51;100.00
34925;BME280;21130;51.728;8.748;2023-04-01T14:00:50;98677.13;;;11.32;100.00
34925;BME280;21130;51.728;8.748;2023-04-01T14:03:49;98682.31;;;11.63;100.00
34925;BME280;21130;51.728;8.748;2023-04-01T14:06:46;98678.13;;;11.41;100.00
34925;BME280;21130;51.728;8.748;2023-04-01T14:09:59;98683.47;;;11.09;100.00
34925;BME280;21130;51.728;8.748;2023-04-01T14:12:57;98692.31;;;11.11;100.00
34925;BME280;21130;51.728;8.748;2023-04-01T14:16:12;98691.13;;;11.46;100.00
34925;BME280;21130;51.728;8.748;2023-04-01T14:19:08;98695.25;;;11.24;100.00
34925;BME280;21130;51.728;8.748;2023-04-01T14:22:05;98699.06;;;11.05;100.00
34925;BME280;21130;51.728;8.748;2023-04-01T14:25:20;98707.09;;;11.06;100.00
34925;BME280;21130;51.728;8.748;2023-04-01T14:28:15;98710.25;;;10.94;100.00